createdAt,value
2022-11-28T00:01:35.581Z,8.10
2022-11-28T00:04:02.653Z,7.43
2022-11-28T00:06:29.646Z,10.10
2022-11-28T00:08:59.313Z,12.57
2022-11-28T00:11:26.356Z,11.10
2022-11-28T00:13:54.070Z,12.93
2022-11-28T00:16:22.596Z,12.50
2022-11-28T00:18:50.309Z,13.10
2022-11-28T00:21:17.415Z,11.00
2022-11-28T00:23:45.743Z,16.50
2022-11-28T00:26:25.154Z,13.50
2022-11-28T00:28:51.992Z,15.13
2022-11-28T00:31:22.163Z,26.97
2022-11-28T00:33:49.409Z,15.43
2022-11-28T00:36:16.970Z,11.87
2022-11-28T00:38:43.692Z,19.40
2022-11-28T00:41:17.104Z,11.73
2022-11-28T00:43:45.399Z,9.07
2022-11-28T00:46:13.800Z,6.80
2022-11-28T00:48:40.790Z,7.17
2022-11-28T00:51:12.941Z,13.90
2022-11-28T00:53:42.404Z,10.77
2022-11-28T00:56:11.645Z,12.20
2022-11-28T00:58:39.943Z,11.63
2022-11-28T01:01:10.729Z,14.27
2022-11-28T01:03:38.147Z,11.60
2022-11-28T01:06:06.118Z,10.83
2022-11-28T01:08:32.979Z,12.87
2022-11-28T01:11:00.662Z,12.37
2022-11-28T01:13:27.465Z,11.77
2022-11-28T01:15:54.343Z,11.80
2022-11-28T01:18:21.156Z,10.50
2022-11-28T01:20:47.947Z,13.77
2022-11-28T01:23:14.719Z,12.00
2022-11-28T01:25:41.427Z,11.40
2022-11-28T01:28:08.194Z,9.50
2022-11-28T01:30:34.940Z,10.73
2022-11-28T01:33:01.672Z,8.80
2022-11-28T01:35:28.556Z,10.67
2022-11-28T01:37:55.299Z,10.67
2022-11-28T01:40:22.143Z,7.20
2022-11-28T01:42:48.917Z,9.80
2022-11-28T01:45:26.020Z,10.47
2022-11-28T01:47:55.495Z,9.53
2022-11-28T01:50:23.365Z,10.30
2022-11-28T01:52:55.814Z,10.57
2022-11-28T01:55:27.030Z,12.27
2022-11-28T01:57:55.082Z,11.70
2022-11-28T02:00:22.362Z,11.53
2022-11-28T02:02:58.649Z,9.50
2022-11-28T02:05:25.531Z,10.60
2022-11-28T02:07:52.679Z,11.43
2022-11-28T02:10:28.713Z,8.27
2022-11-28T02:13:02.615Z,8.03
2022-11-28T02:16:11.804Z,16.50
2022-11-28T02:18:53.670Z,12.10
2022-11-28T02:21:29.527Z,7.57
2022-11-28T02:24:31.095Z,8.47
2022-11-28T02:27:42.296Z,6.20
2022-11-28T02:30:21.817Z,6.53
2022-11-28T02:33:00.680Z,5.70
2022-11-28T02:35:55.964Z,6.37
2022-11-28T02:39:03.766Z,6.17
2022-11-28T02:41:37.891Z,6.47
2022-11-28T02:44:18.006Z,6.93
2022-11-28T02:46:54.378Z,6.30
2022-11-28T02:49:30.003Z,7.17
2022-11-28T02:52:02.354Z,7.03
2022-11-28T02:54:31.633Z,6.43
2022-11-28T02:56:58.433Z,6.70
2022-11-28T02:59:37.387Z,5.83
2022-11-28T03:02:17.696Z,7.93
2022-11-28T03:05:31.058Z,7.53
2022-11-28T03:08:29.861Z,15.20
2022-11-28T03:11:09.669Z,9.90
2022-11-28T03:13:57.554Z,9.70
2022-11-28T03:16:39.288Z,8.63
2022-11-28T03:19:10.738Z,10.33
2022-11-28T03:21:56.110Z,12.10
2022-11-28T03:24:38.001Z,19.87
2022-11-28T03:27:19.218Z,25.43
2022-11-28T03:29:55.629Z,27.80
2022-11-28T03:32:27.493Z,22.57
2022-11-28T03:35:04.573Z,10.33
2022-11-28T03:37:35.818Z,8.57
2022-11-28T03:40:07.718Z,7.40
2022-11-28T03:42:40.400Z,7.97
2022-11-28T03:45:20.365Z,9.70
2022-11-28T03:47:55.588Z,8.57
2022-11-28T03:50:33.748Z,8.57
2022-11-28T03:53:09.932Z,7.00
2022-11-28T03:55:41.342Z,10.53
2022-11-28T03:58:23.164Z,8.80
2022-11-28T04:01:01.625Z,9.00
2022-11-28T04:03:48.595Z,7.23
2022-11-28T04:06:44.267Z,8.93
2022-11-28T04:09:17.818Z,9.23
2022-11-28T04:11:56.468Z,7.93
2022-11-28T04:14:46.127Z,8.23
2022-11-28T04:17:43.676Z,6.50
2022-11-28T04:20:25.456Z,5.87
2022-11-28T04:22:56.514Z,6.27
2022-11-28T04:25:24.838Z,6.57
2022-11-28T04:27:57.725Z,7.63
2022-11-28T04:30:24.879Z,6.07
2022-11-28T04:32:57.881Z,6.47
2022-11-28T04:35:36.139Z,5.60
2022-11-28T04:38:07.201Z,8.30
2022-11-28T04:40:47.145Z,5.43
2022-11-28T04:43:30.838Z,6.63
2022-11-28T04:46:06.457Z,7.03
2022-11-28T04:48:34.549Z,7.13
2022-11-28T04:51:26.958Z,5.83
2022-11-28T04:54:04.607Z,5.50
2022-11-28T04:56:41.192Z,4.60
2022-11-28T04:59:09.032Z,6.80
2022-11-28T05:01:38.342Z,5.03
2022-11-28T05:04:05.575Z,4.70
2022-11-28T05:06:34.591Z,5.17
2022-11-28T05:09:01.358Z,5.77
2022-11-28T05:11:28.524Z,7.50
2022-11-28T05:13:55.638Z,5.47
2022-11-28T05:16:23.107Z,5.47
2022-11-28T05:18:50.752Z,6.50
2022-11-28T05:21:17.478Z,5.03
2022-11-28T05:23:45.206Z,5.23
2022-11-28T05:26:22.395Z,5.80
2022-11-28T05:28:50.929Z,5.40
2022-11-28T05:31:19.499Z,4.80
2022-11-28T05:33:46.363Z,5.33
2022-11-28T05:36:15.360Z,4.23
2022-11-28T05:38:43.071Z,5.20
2022-11-28T05:41:17.816Z,5.90
2022-11-28T05:43:44.549Z,5.00
2022-11-28T05:46:11.455Z,5.60
2022-11-28T05:48:38.254Z,4.77
2022-11-28T05:51:05.554Z,6.17
2022-11-28T05:53:32.784Z,5.00
2022-11-28T05:55:59.785Z,4.53
2022-11-28T05:58:26.476Z,4.90
2022-11-28T06:00:53.215Z,4.33
2022-11-28T06:03:19.969Z,4.90
2022-11-28T06:05:46.791Z,3.90
2022-11-28T06:08:14.024Z,4.40
2022-11-28T06:10:41.492Z,4.17
2022-11-28T06:13:08.696Z,4.87
2022-11-28T06:15:38.289Z,4.07
2022-11-28T06:18:06.151Z,4.60
2022-11-28T06:20:35.291Z,3.83
2022-11-28T06:23:02.040Z,4.50
2022-11-28T06:25:29.137Z,4.53
2022-11-28T06:27:55.885Z,3.57
2022-11-28T06:30:22.593Z,6.43
2022-11-28T06:32:49.285Z,6.63
2022-11-28T06:35:16.277Z,6.00
2022-11-28T06:37:43.237Z,5.47
2022-11-28T06:40:10.122Z,5.00
2022-11-28T06:42:36.978Z,4.80
2022-11-28T06:45:05.382Z,5.40
2022-11-28T06:47:32.418Z,4.53
2022-11-28T06:49:59.262Z,3.73
2022-11-28T06:52:26.526Z,4.00
2022-11-28T06:54:53.303Z,4.67
2022-11-28T06:57:20.065Z,5.43
2022-11-28T06:59:48.745Z,5.40
2022-11-28T07:02:15.549Z,5.13
2022-11-28T07:04:42.355Z,4.90
2022-11-28T07:07:12.526Z,4.27
2022-11-28T07:09:43.005Z,4.93
2022-11-28T07:12:10.024Z,5.17
2022-11-28T07:14:36.840Z,4.90
2022-11-28T07:17:03.739Z,5.07
2022-11-28T07:19:30.661Z,4.80
2022-11-28T07:21:57.433Z,4.93
2022-11-28T07:24:24.218Z,4.60
2022-11-28T07:26:50.992Z,4.90
2022-11-28T07:29:18.564Z,5.13
2022-11-28T07:31:45.645Z,4.90
2022-11-28T07:34:12.767Z,4.57
2022-11-28T07:36:39.888Z,5.50
2022-11-28T07:39:08.964Z,4.17
2022-11-28T07:41:36.053Z,4.73
2022-11-28T07:44:04.282Z,4.30
2022-11-28T07:46:32.467Z,4.67
2022-11-28T07:48:59.750Z,4.80
2022-11-28T07:51:32.189Z,4.37
2022-11-28T07:54:00.052Z,5.37
2022-11-28T07:56:50.130Z,4.37
2022-11-28T07:59:16.730Z,6.43
2022-11-28T08:01:43.547Z,5.50
2022-11-28T08:04:10.580Z,5.00
2022-11-28T08:06:40.002Z,5.23
2022-11-28T08:09:07.710Z,4.80
2022-11-28T08:11:36.221Z,4.97
2022-11-28T08:14:03.145Z,4.97
2022-11-28T08:16:30.531Z,6.50
2022-11-28T08:19:00.530Z,6.67
2022-11-28T08:21:30.463Z,7.17
2022-11-28T08:24:01.138Z,6.87
2022-11-28T08:26:30.856Z,7.50
2022-11-28T08:28:59.016Z,6.43
2022-11-28T08:31:29.519Z,7.13
2022-11-28T08:33:58.102Z,6.20
2022-11-28T08:36:26.305Z,5.73
2022-11-28T08:39:09.860Z,6.37
2022-11-28T08:41:42.830Z,5.57
2022-11-28T08:44:09.733Z,7.00
2022-11-28T08:46:36.707Z,7.67
2022-11-28T08:49:04.742Z,6.10
2022-11-28T08:51:32.091Z,5.47
2022-11-28T08:53:59.810Z,6.77
2022-11-28T08:56:27.382Z,7.43
2022-11-28T08:58:54.880Z,5.87
2022-11-28T09:01:24.305Z,6.37
2022-11-28T09:03:51.992Z,6.20
2022-11-28T09:06:20.839Z,5.83
2022-11-28T09:08:48.676Z,5.80
2022-11-28T09:11:18.778Z,7.47
2022-11-28T09:13:46.069Z,7.33
2022-11-28T09:16:14.397Z,8.43
2022-11-28T09:18:41.435Z,8.23
2022-11-28T09:21:11.519Z,8.37
2022-11-28T09:23:41.038Z,6.93
2022-11-28T09:26:09.719Z,8.37
2022-11-28T09:28:36.935Z,6.50
2022-11-28T09:31:05.223Z,7.23
2022-11-28T09:33:32.211Z,7.00
2022-11-28T09:35:59.323Z,8.63
2022-11-28T09:38:26.578Z,7.00
2022-11-28T09:40:53.518Z,8.57
2022-11-28T09:43:41.927Z,7.90
2022-11-28T09:46:13.694Z,7.93
2022-11-28T09:48:51.155Z,6.70
2022-11-28T09:51:39.750Z,7.23
2022-11-28T09:54:17.540Z,7.70
2022-11-28T09:56:48.088Z,8.37
2022-11-28T09:59:26.736Z,8.27
2022-11-28T10:01:58.612Z,7.80
2022-11-28T10:04:37.548Z,6.60
2022-11-28T10:07:24.344Z,8.37
2022-11-28T10:10:27.515Z,8.73
2022-11-28T10:13:20.393Z,7.03
2022-11-28T10:16:06.609Z,8.40
2022-11-28T10:18:48.628Z,8.47
2022-11-28T10:21:23.202Z,7.43
2022-11-28T10:23:54.836Z,6.50
2022-11-28T10:26:36.045Z,9.73
2022-11-28T10:29:20.451Z,7.97
2022-11-28T10:31:49.067Z,7.87
2022-11-28T10:34:42.378Z,8.77
2022-11-28T10:37:29.088Z,7.73
2022-11-28T10:39:59.112Z,7.43
2022-11-28T10:42:56.929Z,7.13
2022-11-28T10:45:33.718Z,6.20
2022-11-28T10:48:38.597Z,6.13
2022-11-28T10:51:05.694Z,6.00
2022-11-28T10:53:47.689Z,5.17
2022-11-28T10:56:21.691Z,5.13
2022-11-28T10:58:58.185Z,6.30
2022-11-28T11:01:33.064Z,5.20
2022-11-28T11:03:59.912Z,5.47
2022-11-28T11:06:36.087Z,5.17
2022-11-28T11:09:10.892Z,4.57
2022-11-28T11:11:42.364Z,4.93
2022-11-28T11:14:11.349Z,5.17
2022-11-28T11:16:47.794Z,3.97
2022-11-28T11:19:39.230Z,4.03
2022-11-28T11:22:19.958Z,3.00
2022-11-28T11:25:04.821Z,3.13
2022-11-28T11:27:31.980Z,3.10
2022-11-28T11:29:59.367Z,3.40
2022-11-28T11:32:30.669Z,4.13
2022-11-28T11:34:58.822Z,3.60
2022-11-28T11:37:37.381Z,3.20
2022-11-28T11:40:20.680Z,3.20
2022-11-28T11:42:58.455Z,2.63
2022-11-28T11:45:30.293Z,3.17
2022-11-28T11:47:57.426Z,2.87
2022-11-28T11:50:28.031Z,3.30
2022-11-28T11:53:10.371Z,2.50
2022-11-28T11:55:53.527Z,2.87
2022-11-28T11:58:24.564Z,3.17
2022-11-28T12:00:54.929Z,2.43
2022-11-28T12:03:41.398Z,3.10
2022-11-28T12:06:16.201Z,2.67
2022-11-28T12:09:09.970Z,3.33
2022-11-28T12:11:46.557Z,2.87
2022-11-28T12:14:31.547Z,4.10
2022-11-28T12:17:47.705Z,3.90
2022-11-28T12:20:34.524Z,3.80
2022-11-28T12:23:28.690Z,4.23
2022-11-28T12:26:09.109Z,3.77
2022-11-28T12:28:49.679Z,4.23
2022-11-28T12:31:41.380Z,4.23
2022-11-28T12:34:29.335Z,4.87
2022-11-28T12:37:14.857Z,4.67
2022-11-28T12:40:24.684Z,4.33
2022-11-28T12:43:13.199Z,3.60
2022-11-28T12:45:39.952Z,3.90
2022-11-28T12:48:15.182Z,3.10
2022-11-28T12:51:06.218Z,3.57
2022-11-28T12:53:59.316Z,3.20
2022-11-28T12:57:01.376Z,3.13
2022-11-28T12:59:59.994Z,3.60
2022-11-28T13:02:29.100Z,2.60
2022-11-28T13:05:20.128Z,3.33
2022-11-28T13:08:06.928Z,2.83
2022-11-28T13:10:49.034Z,2.60
2022-11-28T13:13:44.956Z,3.00
2022-11-28T13:16:12.001Z,3.27
2022-11-28T13:18:49.984Z,2.60
2022-11-28T13:21:19.763Z,3.00
2022-11-28T13:24:07.320Z,3.50
2022-11-28T13:26:52.623Z,2.60
2022-11-28T13:29:37.691Z,3.53
2022-11-28T13:32:29.600Z,3.40
2022-11-28T13:34:56.814Z,3.17
2022-11-28T13:40:30.529Z,3.10
2022-11-28T13:43:07.549Z,3.27
2022-11-28T13:45:41.468Z,3.27
2022-11-28T13:51:33.408Z,2.80
2022-11-28T13:54:21.681Z,2.90
2022-11-28T13:57:16.483Z,3.07
2022-11-28T13:59:53.279Z,2.97
2022-11-28T14:02:34.765Z,4.43
2022-11-28T14:05:02.519Z,3.50
2022-11-28T14:07:33.221Z,3.50
2022-11-28T14:10:30.008Z,3.17
2022-11-28T14:13:13.784Z,3.27
2022-11-28T14:15:55.683Z,2.77
2022-11-28T14:18:56.225Z,3.00
2022-11-28T14:21:38.676Z,3.00
2022-11-28T14:24:28.366Z,3.50
2022-11-28T14:27:01.926Z,3.27
2022-11-28T14:29:38.553Z,3.27
2022-11-28T14:32:28.859Z,2.80
2022-11-28T14:34:52.920Z,2.60
2022-11-28T14:37:19.683Z,2.37
2022-11-28T14:39:48.047Z,2.70
2022-11-28T14:42:30.574Z,3.30
2022-11-28T14:45:21.707Z,2.93
2022-11-28T14:48:26.977Z,3.10
2022-11-28T14:51:01.016Z,3.70
2022-11-28T14:53:34.567Z,3.13
2022-11-28T14:56:15.877Z,2.50
2022-11-28T14:58:47.812Z,2.60
2022-11-28T15:01:42.875Z,3.27
2022-11-28T15:04:34.264Z,3.17
2022-11-28T15:07:03.873Z,2.60
2022-11-28T15:09:42.662Z,2.60
2022-11-28T15:12:42.567Z,2.53
2022-11-28T15:15:14.252Z,2.77
2022-11-28T15:17:44.150Z,3.07
2022-11-28T15:20:35.414Z,3.60
2022-11-28T15:23:02.317Z,2.87
2022-11-28T15:25:37.285Z,2.97
2022-11-28T15:28:14.809Z,3.40
2022-11-28T15:30:47.756Z,3.30
2022-11-28T15:33:14.745Z,2.13
2022-11-28T15:36:10.747Z,3.67
2022-11-28T15:38:38.575Z,2.40
2022-11-28T15:41:05.724Z,3.37
2022-11-28T15:43:32.615Z,2.40
2022-11-28T15:46:01.193Z,2.67
2022-11-28T15:48:46.839Z,2.77
2022-11-28T15:51:41.224Z,3.40
2022-11-28T15:54:31.667Z,3.73
2022-11-28T15:56:59.930Z,3.50
2022-11-28T15:59:26.919Z,3.70
2022-11-28T16:02:08.384Z,3.37
2022-11-28T16:04:35.326Z,5.07
2022-11-28T16:07:02.614Z,6.60
2022-11-28T16:09:35.371Z,7.57
2022-11-28T16:12:04.929Z,4.13
2022-11-28T16:14:34.438Z,3.33
2022-11-28T16:17:14.906Z,3.47
2022-11-28T16:19:43.723Z,3.07
2022-11-28T16:22:16.893Z,3.30
2022-11-28T16:24:50.662Z,3.50
2022-11-28T16:27:38.570Z,3.27
2022-11-28T16:30:32.929Z,3.17
2022-11-28T16:33:00.135Z,3.17
2022-11-28T16:35:28.822Z,3.93
2022-11-28T16:38:16.438Z,3.80
2022-11-28T16:40:45.050Z,4.27
2022-11-28T16:43:25.334Z,4.40
2022-11-28T16:46:00.223Z,3.27
2022-11-28T16:48:37.039Z,4.67
2022-11-28T16:51:07.393Z,3.80
2022-11-28T16:53:49.900Z,3.60
2022-11-28T16:56:31.653Z,4.40
2022-11-28T16:59:07.255Z,3.40
2022-11-28T17:01:35.225Z,5.13
2022-11-28T17:04:02.460Z,4.20
2022-11-28T17:06:34.451Z,4.53
2022-11-28T17:09:01.946Z,4.80
2022-11-28T17:11:32.922Z,4.30
2022-11-28T17:14:02.547Z,5.20
2022-11-28T17:16:33.517Z,4.60
2022-11-28T17:19:00.329Z,4.73
2022-11-28T17:21:33.926Z,3.93
2022-11-28T17:24:01.819Z,3.20
2022-11-28T17:26:28.922Z,3.30
2022-11-28T17:28:55.703Z,4.03
2022-11-28T17:31:23.825Z,3.73
2022-11-28T17:33:51.075Z,3.80
2022-11-28T17:36:17.930Z,3.80
2022-11-28T17:38:44.740Z,4.13
2022-11-28T17:41:14.293Z,4.57
2022-11-28T17:43:41.676Z,5.40
2022-11-28T17:46:09.440Z,5.23
2022-11-28T17:48:36.251Z,4.80
2022-11-28T17:51:03.777Z,6.30
2022-11-28T17:53:30.655Z,6.97
2022-11-28T17:55:59.791Z,6.73
2022-11-28T17:58:26.890Z,8.17
2022-11-28T18:00:59.940Z,10.47
2022-11-28T18:03:28.089Z,13.83
2022-11-28T18:05:54.935Z,14.07
2022-11-28T18:08:22.532Z,14.93
2022-11-28T18:10:49.848Z,12.07
2022-11-28T18:13:17.565Z,13.77
2022-11-28T18:15:47.119Z,12.73
2022-11-28T18:18:14.031Z,14.00
2022-11-28T18:20:40.835Z,15.97
2022-11-28T18:23:10.275Z,15.27
2022-11-28T18:25:42.918Z,18.13
2022-11-28T18:28:18.614Z,18.60
2022-11-28T18:30:47.028Z,17.13
2022-11-28T18:33:15.221Z,16.70
2022-11-28T18:35:42.727Z,14.60
2022-11-28T18:38:11.917Z,16.67
2022-11-28T18:40:39.009Z,14.00
2022-11-28T18:43:07.970Z,16.37
2022-11-28T18:45:35.260Z,15.07
2022-11-28T18:48:02.391Z,15.70
2022-11-28T18:50:29.178Z,17.07
2022-11-28T18:52:56.252Z,19.13
2022-11-28T18:55:23.670Z,21.37
2022-11-28T18:57:53.913Z,23.33
2022-11-28T19:00:21.250Z,27.17
2022-11-28T19:02:47.999Z,29.23
2022-11-28T19:05:14.811Z,27.80
2022-11-28T19:07:41.880Z,20.57
2022-11-28T19:10:09.262Z,28.03
2022-11-28T19:13:27.151Z,29.03
2022-11-28T19:15:53.896Z,29.50
2022-11-28T19:18:20.664Z,23.07
2022-11-28T19:20:47.942Z,23.43
2022-11-28T19:23:14.763Z,26.33
2022-11-28T19:25:42.446Z,24.77
2022-11-28T19:28:09.141Z,23.07
2022-11-28T19:30:35.992Z,24.27
2022-11-28T19:33:02.910Z,25.93
2022-11-28T19:35:29.658Z,24.70
2022-11-28T19:37:56.406Z,23.23
2022-11-28T19:40:23.646Z,23.07
2022-11-28T19:42:50.393Z,23.27
2022-11-28T19:45:17.482Z,23.00
2022-11-28T19:47:46.565Z,23.27
2022-11-28T19:50:13.525Z,23.70
2022-11-28T19:52:41.087Z,21.30
2022-11-28T19:55:08.114Z,19.60
2022-11-28T19:57:38.402Z,21.13
2022-11-28T20:02:57.081Z,21.17
2022-11-28T20:05:23.786Z,18.70
2022-11-28T20:07:55.501Z,21.73
2022-11-28T20:10:25.980Z,19.33
2022-11-28T20:12:54.273Z,19.47
2022-11-28T20:15:21.883Z,21.17
2022-11-28T20:17:48.961Z,20.90
2022-11-28T20:20:16.081Z,22.83
2022-11-28T20:22:43.078Z,23.03
2022-11-28T20:25:09.853Z,24.93
2022-11-28T20:27:36.882Z,22.53
2022-11-28T20:30:06.727Z,20.33
2022-11-28T20:32:33.587Z,24.40
2022-11-28T20:35:01.528Z,25.50
2022-11-28T20:37:28.908Z,29.70
2022-11-28T20:39:58.005Z,25.50
2022-11-28T20:42:24.951Z,22.37
2022-11-28T20:44:51.732Z,21.13
2022-11-28T20:47:18.617Z,22.67
2022-11-28T20:49:45.651Z,22.17
2022-11-28T20:52:12.676Z,20.70
2022-11-28T20:54:39.361Z,21.50
2022-11-28T20:57:20.926Z,20.67
2022-11-28T20:59:49.926Z,23.33
2022-11-28T21:02:16.792Z,19.97
2022-11-28T21:04:43.671Z,18.23
2022-11-28T21:07:10.443Z,20.53
2022-11-28T21:09:37.229Z,21.00
2022-11-28T21:12:04.403Z,23.73
2022-11-28T21:14:31.344Z,23.67
2022-11-28T21:16:59.530Z,26.73
2022-11-28T21:19:26.667Z,21.33
2022-11-28T21:21:53.957Z,25.20
2022-11-28T21:24:20.743Z,20.23
2022-11-28T21:26:53.420Z,28.73
2022-11-28T21:29:22.753Z,21.27
2022-11-28T21:31:49.691Z,23.53
2022-11-28T21:34:17.624Z,27.00
2022-11-28T21:36:45.370Z,21.70
2022-11-28T21:39:14.213Z,22.00
2022-11-28T21:41:41.135Z,26.17
2022-11-28T21:44:08.776Z,24.97
2022-11-28T21:46:35.509Z,22.47
2022-11-28T21:49:02.372Z,27.10
2022-11-28T21:51:29.535Z,21.50
2022-11-28T21:53:59.343Z,23.90
2022-11-28T21:56:26.537Z,20.60
2022-11-28T21:58:53.793Z,21.27
2022-11-28T22:01:21.596Z,22.77
2022-11-28T22:03:48.997Z,22.80
2022-11-28T22:06:19.460Z,21.40
2022-11-28T22:08:46.424Z,20.77
2022-11-28T22:11:14.710Z,21.73
2022-11-28T22:13:42.977Z,22.83
2022-11-28T22:16:20.951Z,21.57
2022-11-28T22:18:48.977Z,21.93
2022-11-28T22:24:03.964Z,23.67
2022-11-28T22:26:30.724Z,21.43
2022-11-28T22:28:58.926Z,22.87
2022-11-28T22:31:25.921Z,25.90
2022-11-28T22:33:53.173Z,23.97
2022-11-28T22:36:21.255Z,23.07
2022-11-28T22:38:49.702Z,23.40
2022-11-28T22:41:23.373Z,24.07
2022-11-28T22:43:56.451Z,21.43
2022-11-28T22:46:23.369Z,26.03
2022-11-28T22:48:51.802Z,26.57
2022-11-28T22:51:22.757Z,25.57
2022-11-28T22:53:54.462Z,29.20
2022-11-28T22:56:21.515Z,28.63
2022-11-28T22:58:48.843Z,30.17
2022-11-28T23:01:22.215Z,25.17
2022-11-28T23:03:50.265Z,28.73
2022-11-28T23:06:19.811Z,32.23
2022-11-28T23:08:47.108Z,23.73
2022-11-28T23:11:22.266Z,23.70
2022-11-28T23:13:50.244Z,24.80
2022-11-28T23:16:19.812Z,35.90
2022-11-28T23:18:49.850Z,32.60
2022-11-28T23:21:18.320Z,32.60
2022-11-28T23:23:46.022Z,36.57
2022-11-28T23:26:24.755Z,26.97
2022-11-28T23:28:52.272Z,26.33
2022-11-28T23:31:22.104Z,24.57
2022-11-28T23:33:49.547Z,31.13
2022-11-28T23:36:23.801Z,38.93
2022-11-28T23:38:52.925Z,42.63
2022-11-28T23:41:20.367Z,26.50
2022-11-28T23:43:47.682Z,39.27
2022-11-28T23:46:16.723Z,43.20
2022-11-28T23:48:43.809Z,43.97
2022-11-28T23:51:12.949Z,56.73
2022-11-28T23:53:40.750Z,25.80
2022-11-28T23:56:13.927Z,21.57
2022-11-28T23:58:41.587Z,22.67
